createdAt,value
2023-04-19T00:00:40.184Z,68.02
2023-04-19T00:01:44.317Z,68.83
2023-04-19T00:02:50.040Z,68.76
2023-04-19T00:03:54.170Z,68.63
2023-04-19T00:04:58.082Z,68.33
2023-04-19T00:06:01.760Z,68.55
2023-04-19T00:07:05.625Z,68.60
2023-04-19T00:08:09.562Z,69.36
2023-04-19T00:09:13.442Z,69.19
2023-04-19T00:10:17.172Z,69.05
2023-04-19T00:11:21.024Z,69.24
2023-04-19T00:12:24.607Z,69.20
2023-04-19T00:13:27.798Z,69.78
2023-04-19T00:14:31.646Z,69.52
2023-04-19T00:15:36.153Z,70.34
2023-04-19T00:16:39.670Z,70.10
2023-04-19T00:17:43.721Z,69.90
2023-04-19T00:18:47.718Z,68.97
2023-04-19T00:19:51.579Z,68.59
2023-04-19T00:20:54.715Z,68.88
2023-04-19T00:21:58.532Z,69.01
2023-04-19T00:23:02.186Z,70.05
2023-04-19T00:24:06.631Z,68.60
2023-04-19T00:25:09.871Z,69.15
2023-04-19T00:26:16.307Z,69.37
2023-04-19T00:27:25.801Z,70.02
2023-04-19T00:28:29.641Z,69.64
2023-04-19T00:29:33.844Z,68.95
2023-04-19T00:30:37.494Z,69.14
2023-04-19T00:31:41.557Z,69.09
2023-04-19T00:32:45.037Z,68.66
2023-04-19T00:33:48.172Z,68.71
2023-04-19T00:34:51.552Z,69.88
2023-04-19T00:35:54.967Z,70.05
2023-04-19T00:36:58.716Z,69.72
2023-04-19T00:38:02.456Z,70.10
2023-04-19T00:39:05.890Z,69.63
2023-04-19T00:40:09.866Z,69.77
2023-04-19T00:41:14.127Z,69.45
2023-04-19T00:42:18.224Z,69.98
2023-04-19T00:43:23.763Z,70.46
2023-04-19T00:44:27.225Z,70.60
2023-04-19T00:45:31.005Z,70.35
2023-04-19T00:46:34.748Z,70.04
2023-04-19T00:47:38.038Z,69.69
2023-04-19T00:48:42.008Z,69.61
2023-04-19T00:49:46.942Z,69.23
2023-04-19T00:50:50.730Z,69.55
2023-04-19T00:51:54.793Z,70.13
2023-04-19T00:53:01.175Z,69.90
2023-04-19T00:54:05.221Z,70.13
2023-04-19T00:55:08.957Z,69.49
2023-04-19T00:56:12.166Z,69.41
2023-04-19T00:57:17.694Z,69.21
2023-04-19T00:58:21.439Z,70.92
2023-04-19T00:59:24.736Z,69.69
2023-04-19T01:00:28.388Z,70.13
2023-04-19T01:01:32.329Z,70.89
2023-04-19T01:02:36.914Z,72.24
2023-04-19T01:03:40.796Z,71.88
2023-04-19T01:04:45.370Z,72.87
2023-04-19T01:05:50.562Z,72.32
2023-04-19T01:06:54.105Z,70.78
2023-04-19T01:07:58.296Z,70.38
2023-04-19T01:09:02.717Z,70.40
2023-04-19T01:10:06.722Z,71.70
2023-04-19T01:11:10.012Z,71.74
2023-04-19T01:12:13.717Z,72.34
2023-04-19T01:13:19.282Z,72.12
2023-04-19T01:14:23.210Z,71.75
2023-04-19T01:15:27.195Z,72.08
2023-04-19T01:16:31.104Z,71.27
2023-04-19T01:17:35.188Z,72.89
2023-04-19T01:18:41.810Z,72.65
2023-04-19T01:19:45.290Z,72.44
2023-04-19T01:20:48.656Z,72.36
2023-04-19T01:21:53.618Z,73.12
2023-04-19T01:22:57.041Z,73.15
2023-04-19T01:24:00.592Z,72.67
2023-04-19T01:25:05.145Z,71.88
2023-04-19T01:26:08.366Z,71.43
2023-04-19T01:27:12.197Z,71.01
2023-04-19T01:28:15.496Z,70.79
2023-04-19T01:29:19.852Z,71.83
2023-04-19T01:30:23.875Z,72.05
2023-04-19T01:31:27.937Z,72.99
2023-04-19T01:32:31.845Z,71.79
2023-04-19T01:33:35.505Z,71.99
2023-04-19T01:34:39.006Z,72.47
2023-04-19T01:35:42.570Z,71.63
2023-04-19T01:36:46.805Z,72.52
2023-04-19T01:37:51.732Z,72.39
2023-04-19T01:38:55.343Z,72.79
2023-04-19T01:39:58.662Z,72.45
2023-04-19T01:41:04.099Z,72.41
2023-04-19T01:42:07.959Z,71.55
2023-04-19T01:43:17.729Z,71.59
2023-04-19T01:44:20.895Z,71.65
2023-04-19T01:45:24.113Z,72.41
2023-04-19T01:46:27.861Z,71.88
2023-04-19T01:47:31.615Z,70.82
2023-04-19T01:48:35.335Z,71.12
2023-04-19T01:49:39.300Z,71.92
2023-04-19T01:50:42.593Z,72.04
2023-04-19T01:51:47.865Z,71.48
2023-04-19T01:52:51.463Z,70.97
2023-04-19T01:53:55.578Z,70.78
2023-04-19T01:54:59.856Z,70.52
2023-04-19T01:56:03.304Z,71.32
2023-04-19T01:57:07.072Z,70.21
2023-04-19T01:58:11.058Z,70.31
2023-04-19T01:59:15.367Z,71.50
2023-04-19T02:00:18.824Z,70.55
2023-04-19T02:01:24.299Z,70.57
2023-04-19T02:02:28.215Z,70.78
2023-04-19T02:03:32.435Z,71.53
2023-04-19T02:04:36.478Z,71.56
2023-04-19T02:05:42.608Z,71.64
2023-04-19T02:06:45.993Z,71.26
2023-04-19T02:07:49.784Z,70.99
2023-04-19T02:08:53.600Z,71.63
2023-04-19T02:09:56.901Z,70.79
2023-04-19T02:11:00.653Z,70.60
2023-04-19T02:12:05.929Z,71.00
2023-04-19T02:13:09.748Z,70.12
2023-04-19T02:14:13.378Z,70.02
2023-04-19T02:15:17.202Z,70.10
2023-04-19T02:16:21.028Z,70.64
2023-04-19T02:17:26.984Z,70.89
2023-04-19T02:18:31.513Z,71.22
2023-04-19T02:19:35.161Z,71.57
2023-04-19T02:20:38.773Z,71.65
2023-04-19T02:21:42.340Z,71.80
2023-04-19T02:22:46.030Z,72.84
2023-04-19T02:23:49.568Z,73.07
2023-04-19T02:24:53.674Z,72.61
2023-04-19T02:26:04.262Z,72.40
2023-04-19T02:27:08.005Z,72.82
2023-04-19T02:28:11.924Z,73.89
2023-04-19T02:29:17.542Z,73.58
2023-04-19T02:30:21.354Z,73.92
2023-04-19T02:31:24.750Z,73.16
2023-04-19T02:32:28.814Z,73.01
2023-04-19T02:33:32.415Z,73.29
2023-04-19T02:34:36.975Z,72.41
2023-04-19T02:35:40.273Z,74.05
2023-04-19T02:36:43.674Z,73.85
2023-04-19T02:37:47.806Z,74.59
2023-04-19T02:38:51.464Z,74.89
2023-04-19T02:39:56.972Z,73.25
2023-04-19T02:41:02.253Z,73.67
2023-04-19T02:42:06.518Z,72.23
2023-04-19T02:43:10.171Z,72.75
2023-04-19T02:44:13.674Z,72.17
2023-04-19T02:45:19.332Z,72.41
2023-04-19T02:46:22.879Z,72.47
2023-04-19T02:47:26.459Z,72.84
2023-04-19T02:48:29.654Z,73.85
2023-04-19T02:49:36.630Z,73.94
2023-04-19T02:50:41.364Z,74.47
2023-04-19T02:51:45.254Z,73.65
2023-04-19T02:52:49.808Z,72.51
2023-04-19T02:53:54.543Z,72.74
2023-04-19T02:54:58.383Z,73.40
2023-04-19T02:56:02.676Z,72.91
2023-04-19T02:57:05.882Z,73.90
2023-04-19T02:58:09.826Z,73.40
2023-04-19T02:59:23.652Z,73.36
2023-04-19T03:00:27.489Z,72.51
2023-04-19T03:01:40.523Z,72.52
2023-04-19T03:02:45.596Z,74.55
2023-04-19T03:03:49.759Z,73.05
2023-04-19T03:04:56.028Z,72.74
2023-04-19T03:05:59.553Z,75.07
2023-04-19T03:07:04.783Z,75.22
2023-04-19T03:08:07.991Z,76.78
2023-04-19T03:09:12.391Z,76.56
2023-04-19T03:10:16.719Z,75.99
2023-04-19T03:11:20.717Z,74.08
2023-04-19T03:12:24.796Z,75.97
2023-04-19T03:13:28.955Z,75.25
2023-04-19T03:14:34.796Z,76.85
2023-04-19T03:15:38.426Z,77.48
2023-04-19T03:16:42.537Z,76.87
2023-04-19T03:17:46.857Z,78.21
2023-04-19T03:18:51.228Z,77.87
2023-04-19T03:19:59.606Z,79.99
2023-04-19T03:21:04.382Z,79.59
2023-04-19T03:22:16.272Z,77.58
2023-04-19T03:23:19.916Z,79.72
2023-04-19T03:24:31.093Z,78.21
2023-04-19T03:25:38.764Z,77.94
2023-04-19T03:27:15.715Z,80.14
2023-04-19T03:28:22.800Z,80.42
2023-04-19T03:29:48.789Z,80.38
2023-04-19T03:30:52.542Z,78.64
2023-04-19T03:31:55.854Z,78.58
2023-04-19T03:33:01.141Z,81.04
2023-04-19T03:34:04.993Z,79.68
2023-04-19T03:35:15.135Z,79.69
2023-04-19T03:36:18.694Z,79.87
2023-04-19T03:37:23.755Z,80.04
2023-04-19T03:38:27.460Z,81.46
2023-04-19T03:39:31.938Z,81.92
2023-04-19T03:40:39.332Z,79.94
2023-04-19T03:41:45.013Z,80.75
2023-04-19T03:43:06.367Z,81.47
2023-04-19T03:44:11.431Z,82.53
2023-04-19T03:45:18.320Z,81.87
2023-04-19T03:46:24.631Z,80.77
2023-04-19T03:47:28.566Z,81.62
2023-04-19T03:48:36.568Z,81.56
2023-04-19T03:49:40.210Z,80.58
2023-04-19T03:50:43.751Z,80.48
2023-04-19T03:51:50.679Z,80.64
2023-04-19T03:52:55.214Z,80.48
2023-04-19T03:53:58.912Z,81.33
2023-04-19T03:55:04.175Z,80.46
2023-04-19T03:56:12.644Z,79.91
2023-04-19T03:57:18.627Z,79.85
2023-04-19T03:58:23.193Z,79.73
2023-04-19T03:59:34.491Z,80.12
2023-04-19T04:00:38.988Z,79.97
2023-04-19T04:01:42.942Z,80.20
2023-04-19T04:02:46.676Z,79.70
2023-04-19T04:03:50.403Z,79.84
2023-04-19T04:04:55.996Z,80.98
2023-04-19T04:06:00.336Z,82.18
2023-04-19T04:07:04.287Z,82.68
2023-04-19T04:08:08.613Z,83.11
2023-04-19T04:09:12.468Z,83.81
2023-04-19T04:10:16.004Z,83.99
2023-04-19T04:11:20.491Z,84.21
2023-04-19T04:12:25.559Z,83.18
2023-04-19T04:13:31.349Z,82.86
2023-04-19T04:14:42.934Z,82.46
2023-04-19T04:15:47.890Z,81.90
2023-04-19T04:16:52.661Z,82.74
2023-04-19T04:17:57.762Z,82.59
2023-04-19T04:19:02.878Z,83.21
2023-04-19T04:20:10.783Z,82.79
2023-04-19T04:21:14.640Z,82.29
2023-04-19T04:22:22.267Z,83.60
2023-04-19T04:23:26.470Z,83.63
2023-04-19T04:24:31.202Z,84.35
2023-04-19T04:26:05.544Z,83.87
2023-04-19T04:27:28.948Z,82.81
2023-04-19T04:28:32.954Z,83.51
2023-04-19T04:29:40.690Z,83.01
2023-04-19T04:30:45.534Z,83.64
2023-04-19T04:31:50.167Z,83.68
2023-04-19T04:32:59.062Z,82.83
2023-04-19T04:34:04.440Z,82.94
2023-04-19T04:35:12.028Z,83.74
2023-04-19T04:36:21.637Z,82.86
2023-04-19T04:37:27.091Z,82.54
2023-04-19T04:38:30.947Z,82.90
2023-04-19T04:39:40.167Z,82.96
2023-04-19T04:40:50.283Z,82.72
2023-04-19T04:41:54.151Z,83.76
2023-04-19T04:42:58.493Z,82.63
2023-04-19T04:44:12.482Z,82.21
2023-04-19T04:45:27.283Z,81.93
2023-04-19T04:46:31.368Z,82.15
2023-04-19T04:47:35.556Z,82.18
2023-04-19T04:48:42.091Z,82.63
2023-04-19T04:49:46.165Z,82.67
2023-04-19T04:50:50.087Z,83.02
2023-04-19T04:51:54.598Z,83.00
2023-04-19T04:52:58.578Z,82.61
2023-04-19T04:54:06.373Z,82.42
2023-04-19T04:55:12.056Z,82.42
2023-04-19T04:56:20.447Z,81.88
2023-04-19T04:57:23.790Z,81.90
2023-04-19T04:58:27.456Z,81.92
2023-04-19T04:59:36.491Z,81.79
2023-04-19T05:00:40.506Z,81.79
2023-04-19T05:01:46.764Z,81.65
2023-04-19T05:02:51.093Z,81.33
2023-04-19T05:03:54.582Z,81.53
2023-04-19T05:04:58.421Z,81.87
2023-04-19T05:06:03.303Z,81.68
2023-04-19T05:07:07.755Z,81.85
2023-04-19T05:08:11.408Z,82.25
2023-04-19T05:09:15.522Z,82.10
2023-04-19T05:10:19.450Z,81.92
2023-04-19T05:11:24.041Z,82.25
2023-04-19T05:12:28.571Z,82.08
2023-04-19T05:13:32.838Z,81.72
2023-04-19T05:14:36.616Z,81.73
2023-04-19T05:15:41.041Z,81.82
2023-04-19T05:16:45.546Z,81.95
2023-04-19T05:17:50.460Z,82.50
2023-04-19T05:18:57.218Z,81.90
2023-04-19T05:20:02.318Z,81.98
2023-04-19T05:21:07.454Z,81.84
2023-04-19T05:22:11.175Z,82.15
2023-04-19T05:23:15.806Z,81.97
2023-04-19T05:24:19.882Z,81.25
2023-04-19T05:25:23.492Z,81.63
2023-04-19T05:26:27.047Z,81.51
2023-04-19T05:27:31.658Z,81.49
2023-04-19T05:28:35.321Z,81.24
2023-04-19T05:29:44.340Z,81.09
2023-04-19T05:30:48.148Z,81.33
2023-04-19T05:31:52.443Z,81.71
2023-04-19T05:33:03.209Z,81.69
2023-04-19T05:34:08.026Z,81.71
2023-04-19T05:35:12.484Z,81.29
2023-04-19T05:36:16.077Z,81.71
2023-04-19T05:37:20.200Z,81.40
2023-04-19T05:38:23.306Z,81.19
2023-04-19T05:39:27.454Z,81.29
2023-04-19T05:40:31.613Z,81.16
2023-04-19T05:41:35.175Z,80.97
2023-04-19T05:42:39.653Z,81.13
2023-04-19T05:43:43.328Z,81.11
2023-04-19T05:44:47.142Z,81.33
2023-04-19T05:45:50.591Z,81.59
2023-04-19T05:46:54.305Z,80.77
2023-04-19T05:48:18.065Z,80.97
2023-04-19T05:50:00.119Z,80.16
2023-04-19T05:51:18.028Z,80.31
2023-04-19T05:52:39.883Z,80.29
2023-04-19T05:53:44.696Z,80.25
2023-04-19T05:54:48.347Z,80.76
2023-04-19T05:55:53.136Z,80.25
2023-04-19T05:56:56.794Z,80.06
2023-04-19T05:58:00.006Z,79.85
2023-04-19T05:59:04.810Z,80.57
2023-04-19T06:00:10.368Z,79.87
2023-04-19T06:01:32.638Z,79.65
2023-04-19T06:02:37.249Z,79.73
2023-04-19T06:03:40.711Z,79.97
2023-04-19T06:04:44.534Z,79.84
2023-04-19T06:05:48.824Z,79.41
2023-04-19T06:06:52.933Z,79.20
2023-04-19T06:08:02.808Z,79.58
2023-04-19T06:09:08.145Z,79.71
2023-04-19T06:10:11.719Z,79.14
2023-04-19T06:11:23.330Z,78.85
2023-04-19T06:12:33.404Z,78.96
2023-04-19T06:13:37.128Z,78.90
2023-04-19T06:14:40.466Z,78.46
2023-04-19T06:15:44.534Z,78.19
2023-04-19T06:16:48.715Z,78.12
2023-04-19T06:17:52.576Z,77.84
2023-04-19T06:18:56.567Z,77.70
2023-04-19T06:20:00.435Z,77.88
2023-04-19T06:21:03.914Z,78.00
2023-04-19T06:22:07.740Z,77.73
2023-04-19T06:23:14.070Z,77.51
2023-04-19T06:24:17.821Z,77.51
2023-04-19T06:25:21.708Z,77.57
2023-04-19T06:26:25.618Z,77.09
2023-04-19T06:27:29.435Z,76.49
2023-04-19T06:28:33.369Z,76.50
2023-04-19T06:29:37.369Z,76.61
2023-04-19T06:30:40.763Z,76.79
2023-04-19T06:31:44.151Z,75.92
2023-04-19T06:32:47.655Z,76.45
2023-04-19T06:33:51.416Z,75.89
2023-04-19T06:34:54.923Z,76.05
2023-04-19T06:35:58.072Z,76.68
2023-04-19T06:37:01.210Z,75.97
2023-04-19T06:38:04.894Z,75.22
2023-04-19T06:39:08.666Z,75.16
2023-04-19T06:40:12.308Z,75.09
2023-04-19T06:41:15.575Z,75.48
2023-04-19T06:42:20.753Z,76.02
2023-04-19T06:43:24.988Z,76.30
2023-04-19T06:44:28.553Z,75.51
2023-04-19T06:45:32.558Z,75.74
2023-04-19T06:46:36.265Z,75.66
2023-04-19T06:47:40.217Z,75.07
2023-04-19T06:48:43.927Z,74.62
2023-04-19T06:49:47.124Z,74.76
2023-04-19T06:50:50.789Z,74.42
2023-04-19T06:51:55.030Z,74.09
2023-04-19T06:52:58.637Z,74.08
2023-04-19T06:54:02.040Z,74.46
2023-04-19T06:55:07.309Z,74.32
2023-04-19T06:56:12.143Z,74.95
2023-04-19T06:57:16.594Z,73.88
2023-04-19T06:58:20.214Z,73.96
2023-04-19T06:59:23.706Z,74.03
2023-04-19T07:00:27.513Z,73.55
2023-04-19T07:01:31.266Z,73.68
2023-04-19T07:02:35.332Z,73.00
2023-04-19T07:03:39.504Z,72.81
2023-04-19T07:04:43.408Z,72.63
2023-04-19T07:05:48.155Z,72.33
2023-04-19T07:06:51.586Z,72.32
2023-04-19T07:07:55.458Z,72.09
2023-04-19T07:08:59.028Z,71.79
2023-04-19T07:10:02.614Z,71.92
2023-04-19T07:11:07.077Z,72.03
2023-04-19T07:12:11.113Z,71.80
2023-04-19T07:13:14.921Z,71.69
2023-04-19T07:14:21.694Z,71.30
2023-04-19T07:15:24.981Z,71.09
2023-04-19T07:16:29.187Z,71.28
2023-04-19T07:17:33.092Z,71.05
2023-04-19T07:18:36.761Z,70.76
2023-04-19T07:19:40.249Z,70.85
2023-04-19T07:20:45.716Z,70.55
2023-04-19T07:21:49.861Z,70.39
2023-04-19T07:22:53.792Z,70.04
2023-04-19T07:23:57.749Z,70.19
2023-04-19T07:25:01.661Z,69.93
2023-04-19T07:26:05.861Z,70.67
2023-04-19T07:27:09.991Z,70.84
2023-04-19T07:28:14.013Z,70.37
2023-04-19T07:29:17.576Z,70.20
2023-04-19T07:30:21.183Z,69.89
2023-04-19T07:31:25.523Z,69.83
2023-04-19T07:32:29.426Z,70.05
2023-04-19T07:33:33.314Z,69.67
2023-04-19T07:34:38.900Z,69.42
2023-04-19T07:35:42.410Z,69.58
2023-04-19T07:36:46.412Z,68.78
2023-04-19T07:37:49.766Z,68.75
2023-04-19T07:38:53.620Z,68.50
2023-04-19T07:39:57.481Z,68.21
2023-04-19T07:41:01.636Z,68.02
2023-04-19T07:42:05.094Z,67.58
2023-04-19T07:43:09.270Z,67.64
2023-04-19T07:44:13.905Z,66.98
2023-04-19T07:45:17.472Z,67.17
2023-04-19T07:46:21.018Z,67.04
2023-04-19T07:47:24.617Z,67.06
2023-04-19T07:48:28.203Z,66.83
2023-04-19T07:49:34.690Z,66.15
2023-04-19T07:50:38.938Z,65.58
2023-04-19T07:51:42.868Z,65.14
2023-04-19T07:52:46.530Z,64.45
2023-04-19T07:53:50.887Z,64.02
2023-04-19T07:54:54.282Z,63.26
2023-04-19T07:55:58.203Z,62.40
2023-04-19T07:57:03.164Z,61.45
2023-04-19T07:58:07.336Z,60.71
2023-04-19T07:59:11.216Z,59.89
2023-04-19T08:00:15.957Z,59.27
2023-04-19T08:01:19.738Z,58.23
2023-04-19T08:02:23.118Z,57.38
2023-04-19T08:03:26.959Z,56.57
2023-04-19T08:04:31.174Z,56.56
2023-04-19T08:05:35.483Z,55.49
2023-04-19T08:06:40.092Z,54.87
2023-04-19T08:07:44.099Z,54.75
2023-04-19T08:08:48.625Z,54.45
2023-04-19T08:09:53.824Z,53.97
2023-04-19T08:10:57.328Z,53.61
2023-04-19T08:12:04.341Z,51.83
2023-04-19T08:13:08.309Z,50.76
2023-04-19T08:14:28.485Z,48.81
2023-04-19T08:17:19.139Z,43.10
2023-04-19T08:18:06.340Z,40.26
2023-04-19T08:19:10.080Z,38.63
2023-04-19T08:20:14.012Z,36.33
2023-04-19T08:21:17.677Z,34.47
2023-04-19T08:22:22.146Z,33.85
2023-04-19T08:23:29.724Z,32.77
2023-04-19T08:24:41.628Z,30.63
2023-04-19T08:25:45.633Z,30.87
2023-04-19T08:26:54.762Z,30.18
2023-04-19T08:27:58.929Z,29.60
2023-04-19T08:29:02.847Z,28.05
2023-04-19T08:30:08.537Z,27.96
2023-04-19T08:31:12.312Z,26.87
2023-04-19T08:32:16.623Z,26.87
2023-04-19T08:33:19.994Z,26.43
2023-04-19T08:34:23.755Z,25.69
2023-04-19T08:35:28.174Z,25.59
2023-04-19T08:36:41.065Z,24.62
2023-04-19T08:37:49.374Z,24.84
2023-04-19T08:39:04.190Z,24.89
2023-04-19T08:40:12.438Z,24.19
2023-04-19T08:41:16.692Z,24.23
2023-04-19T08:42:33.198Z,23.30
2023-04-19T08:43:40.557Z,22.97
2023-04-19T08:45:05.605Z,22.57
2023-04-19T08:46:09.552Z,22.67
2023-04-19T08:47:20.220Z,21.96
2023-04-19T08:48:31.667Z,21.53
2023-04-19T08:49:40.749Z,21.92
2023-04-19T08:51:03.993Z,21.52
2023-04-19T08:52:09.665Z,21.57
2023-04-19T08:53:23.982Z,21.00
2023-04-19T08:54:33.190Z,20.58
2023-04-19T08:55:38.259Z,20.49
2023-04-19T08:56:43.723Z,20.29
2023-04-19T08:57:47.463Z,20.46
2023-04-19T08:59:01.043Z,20.19
2023-04-19T09:00:15.549Z,20.27
2023-04-19T09:01:31.152Z,20.81
2023-04-19T09:02:48.550Z,20.14
2023-04-19T09:04:01.323Z,20.74
2023-04-19T09:05:10.977Z,20.70
2023-04-19T09:06:14.688Z,21.07
2023-04-19T09:07:27.884Z,20.92
2023-04-19T09:08:31.904Z,20.51
2023-04-19T09:09:45.721Z,20.10
2023-04-19T09:11:02.722Z,20.16
2023-04-19T09:12:21.248Z,19.53
2023-04-19T09:13:25.478Z,19.55
2023-04-19T09:14:29.869Z,19.20
2023-04-19T09:15:40.822Z,18.67
2023-04-19T09:16:45.007Z,18.48
2023-04-19T09:17:48.906Z,18.43
2023-04-19T09:19:15.339Z,18.29
2023-04-19T09:20:26.728Z,18.57
2023-04-19T09:21:31.743Z,18.59
2023-04-19T09:22:40.297Z,18.38
2023-04-19T09:23:48.918Z,18.77
2023-04-19T09:26:22.770Z,18.34
2023-04-19T09:27:35.261Z,18.78
2023-04-19T09:28:38.921Z,18.60
2023-04-19T09:29:43.285Z,18.20
2023-04-19T09:31:00.658Z,17.69
2023-04-19T09:32:14.988Z,16.99
2023-04-19T09:33:35.260Z,17.84
2023-04-19T09:34:39.174Z,17.61
2023-04-19T09:35:50.545Z,17.89
2023-04-19T09:37:01.052Z,18.05
2023-04-19T09:38:16.898Z,18.07
2023-04-19T09:39:32.994Z,17.27
2023-04-19T09:40:36.726Z,17.24
2023-04-19T09:41:53.795Z,17.74
2023-04-19T09:44:35.905Z,17.10
2023-04-19T09:45:45.493Z,17.05
2023-04-19T09:46:53.787Z,17.31
2023-04-19T09:48:08.426Z,16.81
2023-04-19T09:49:25.286Z,17.05
2023-04-19T09:51:03.297Z,17.05
2023-04-19T09:52:10.345Z,17.72
2023-04-19T09:53:13.625Z,16.92
2023-04-19T09:54:21.257Z,17.63
2023-04-19T09:55:27.503Z,17.18
2023-04-19T09:56:31.728Z,17.01
2023-04-19T09:57:35.357Z,17.14
2023-04-19T09:58:50.069Z,17.02
2023-04-19T09:59:56.094Z,16.97
2023-04-19T10:01:10.675Z,16.67
2023-04-19T10:02:17.893Z,17.08
2023-04-19T10:03:22.715Z,17.00
2023-04-19T10:04:41.778Z,17.54
2023-04-19T10:05:51.649Z,17.86
2023-04-19T10:07:19.330Z,17.52
2023-04-19T10:08:18.274Z,17.38
2023-04-19T10:09:24.695Z,17.66
2023-04-19T10:11:40.095Z,17.82
2023-04-19T10:12:59.213Z,17.57
2023-04-19T10:14:08.029Z,17.16
2023-04-19T10:15:12.291Z,17.43
2023-04-19T10:16:19.357Z,17.28
2023-04-19T10:17:24.536Z,17.98
2023-04-19T10:18:28.628Z,18.18
2023-04-19T10:19:32.113Z,17.72
2023-04-19T10:20:56.269Z,17.84
2023-04-19T10:22:00.171Z,17.51
2023-04-19T10:23:04.519Z,17.15
2023-04-19T10:24:09.029Z,17.40
2023-04-19T10:25:14.187Z,16.78
2023-04-19T10:26:17.653Z,17.01
2023-04-19T10:27:25.322Z,16.75
2023-04-19T10:28:32.221Z,16.93
2023-04-19T10:30:01.779Z,16.40
2023-04-19T10:31:06.521Z,16.54
2023-04-19T10:32:14.910Z,16.88
2023-04-19T10:33:28.968Z,16.70
2023-04-19T10:34:39.118Z,16.92
2023-04-19T10:35:43.429Z,16.73
2023-04-19T10:36:47.647Z,17.02
2023-04-19T10:38:08.467Z,16.48
2023-04-19T10:39:41.459Z,17.42
2023-04-19T10:40:57.000Z,17.20
2023-04-19T10:42:00.934Z,17.10
2023-04-19T10:43:17.627Z,16.47
2023-04-19T10:44:21.149Z,16.62
2023-04-19T10:45:35.226Z,17.18
2023-04-19T10:46:41.778Z,16.54
2023-04-19T10:47:48.984Z,17.00
2023-04-19T10:49:01.974Z,16.99
2023-04-19T10:50:07.506Z,16.74
2023-04-19T10:51:19.868Z,16.88
2023-04-19T10:52:30.282Z,16.76
2023-04-19T10:54:02.826Z,16.98
2023-04-19T10:55:06.824Z,17.23
2023-04-19T10:56:10.175Z,17.41
2023-04-19T10:57:14.275Z,17.39
2023-04-19T10:58:18.154Z,17.02
2023-04-19T10:59:25.382Z,17.07
2023-04-19T11:00:32.682Z,16.76
2023-04-19T11:01:46.315Z,17.14
2023-04-19T11:02:50.490Z,16.81
2023-04-19T11:03:54.456Z,17.22
2023-04-19T11:04:58.401Z,17.28
2023-04-19T11:06:20.209Z,18.75
2023-04-19T11:07:25.547Z,18.44
2023-04-19T11:08:29.401Z,19.07
2023-04-19T11:09:37.391Z,18.90
2023-04-19T11:10:41.084Z,19.20
2023-04-19T11:11:48.638Z,19.58
2023-04-19T11:12:52.489Z,19.68
2023-04-19T11:13:59.369Z,19.20
2023-04-19T11:15:03.889Z,19.05
2023-04-19T11:16:11.570Z,19.74
2023-04-19T11:17:28.605Z,20.22
2023-04-19T11:18:32.257Z,19.71
2023-04-19T11:19:35.931Z,19.53
2023-04-19T11:20:39.714Z,19.89
2023-04-19T11:21:43.372Z,20.04
2023-04-19T11:22:47.641Z,19.80
2023-04-19T11:24:09.168Z,19.99
2023-04-19T11:25:14.282Z,20.28
2023-04-19T11:26:18.807Z,20.77
2023-04-19T11:27:22.482Z,20.78
2023-04-19T11:28:26.323Z,21.08
2023-04-19T11:29:29.746Z,21.06
2023-04-19T11:30:33.385Z,21.43
2023-04-19T11:31:37.371Z,22.07
2023-04-19T11:32:48.397Z,21.90
2023-04-19T11:33:52.333Z,21.86
2023-04-19T11:34:56.790Z,21.77
2023-04-19T11:36:01.118Z,21.42
2023-04-19T11:37:04.871Z,21.86
2023-04-19T11:38:09.067Z,22.06
2023-04-19T11:39:12.476Z,22.77
2023-04-19T11:40:17.196Z,23.17
2023-04-19T11:41:20.995Z,23.01
2023-04-19T11:42:24.216Z,23.96
2023-04-19T11:43:36.379Z,23.47
2023-04-19T11:44:39.781Z,23.28
2023-04-19T11:45:43.271Z,23.48
2023-04-19T11:47:07.216Z,23.46
2023-04-19T11:48:17.341Z,23.44
2023-04-19T11:49:28.466Z,24.55
2023-04-19T11:50:44.667Z,24.53
2023-04-19T11:51:48.244Z,24.50
2023-04-19T11:52:51.901Z,24.60
2023-04-19T11:53:56.219Z,24.47
2023-04-19T11:55:00.163Z,23.99
2023-04-19T11:56:07.728Z,24.17
2023-04-19T11:57:11.192Z,24.08
2023-04-19T11:58:41.823Z,24.52
2023-04-19T12:00:15.590Z,24.79
2023-04-19T12:01:22.911Z,23.49
2023-04-19T12:02:26.588Z,24.42
2023-04-19T12:03:30.387Z,23.90
2023-04-19T12:04:35.245Z,23.92
2023-04-19T12:05:39.240Z,24.07
2023-04-19T12:06:43.192Z,24.21
2023-04-19T12:08:10.553Z,23.32
2023-04-19T12:09:14.297Z,23.74
2023-04-19T12:10:17.935Z,23.42
2023-04-19T12:11:27.344Z,23.49
2023-04-19T12:12:33.691Z,24.10
2023-04-19T12:13:37.173Z,23.94
2023-04-19T12:14:40.377Z,24.01
2023-04-19T12:15:47.762Z,23.69
2023-04-19T12:17:10.438Z,24.30
2023-04-19T12:18:13.763Z,24.21
2023-04-19T12:19:20.898Z,24.02
2023-04-19T12:20:38.135Z,23.90
2023-04-19T12:21:42.195Z,23.15
2023-04-19T12:22:45.864Z,24.21
2023-04-19T12:23:49.555Z,24.31
2023-04-19T12:24:54.093Z,23.57
2023-04-19T12:25:57.864Z,23.52
2023-04-19T12:27:02.206Z,23.48
2023-04-19T12:28:07.501Z,23.78
2023-04-19T12:29:11.566Z,24.57
2023-04-19T12:30:15.920Z,24.60
2023-04-19T12:31:21.375Z,24.75
2023-04-19T12:32:25.281Z,25.25
2023-04-19T12:33:29.907Z,26.01
2023-04-19T12:34:33.961Z,26.85
2023-04-19T12:35:39.098Z,27.03
2023-04-19T12:36:42.733Z,27.53
2023-04-19T12:37:46.122Z,27.30
2023-04-19T12:38:50.052Z,27.64
2023-04-19T12:39:55.982Z,28.26
2023-04-19T12:41:00.622Z,28.33
2023-04-19T12:42:04.437Z,29.21
2023-04-19T12:43:08.991Z,29.06
2023-04-19T12:44:12.629Z,28.88
2023-04-19T12:45:16.564Z,29.40
2023-04-19T12:46:21.273Z,29.48
2023-04-19T12:47:25.335Z,30.25
2023-04-19T12:48:29.666Z,30.70
2023-04-19T12:49:33.231Z,30.91
2023-04-19T12:50:36.906Z,31.74
2023-04-19T12:51:40.298Z,32.45
2023-04-19T12:52:45.358Z,32.92
2023-04-19T12:53:50.134Z,34.28
2023-04-19T12:54:53.547Z,34.15
2023-04-19T12:55:57.280Z,34.00
2023-04-19T12:57:02.902Z,34.89
2023-04-19T12:58:07.641Z,34.99
2023-04-19T12:59:12.448Z,34.42
2023-04-19T13:00:17.237Z,35.71
2023-04-19T13:01:21.202Z,36.68
2023-04-19T13:02:24.985Z,36.79
2023-04-19T13:03:33.611Z,36.73
2023-04-19T13:04:37.591Z,35.82
2023-04-19T13:05:41.959Z,35.86
2023-04-19T13:06:46.153Z,35.83
2023-04-19T13:07:49.956Z,35.96
2023-04-19T13:08:54.900Z,35.34
2023-04-19T13:09:58.673Z,35.64
2023-04-19T13:11:02.313Z,35.97
2023-04-19T13:12:08.879Z,36.63
2023-04-19T13:13:12.730Z,36.99
2023-04-19T13:14:16.583Z,37.02
2023-04-19T13:15:20.577Z,37.23
2023-04-19T13:16:24.975Z,37.52
2023-04-19T13:17:28.691Z,37.81
2023-04-19T13:18:32.489Z,37.00
2023-04-19T13:19:36.238Z,37.13
2023-04-19T13:20:40.165Z,37.00
2023-04-19T13:21:44.114Z,37.25
2023-04-19T13:22:47.632Z,38.65
2023-04-19T13:23:51.932Z,38.61
2023-04-19T13:24:55.755Z,38.55
2023-04-19T13:25:59.439Z,38.50
2023-04-19T13:27:02.802Z,38.85
2023-04-19T13:28:06.411Z,39.12
2023-04-19T13:29:10.129Z,38.32
2023-04-19T13:30:14.549Z,38.58
2023-04-19T13:31:18.023Z,38.16
2023-04-19T13:32:21.595Z,39.27
2023-04-19T13:33:25.099Z,38.80
2023-04-19T13:34:28.691Z,39.33
2023-04-19T13:35:32.920Z,40.00
2023-04-19T13:36:36.699Z,39.54
2023-04-19T13:37:40.898Z,40.02
2023-04-19T13:38:44.823Z,40.18
2023-04-19T13:39:48.606Z,39.63
2023-04-19T13:40:52.748Z,39.74
2023-04-19T13:41:56.156Z,39.86
2023-04-19T13:43:00.520Z,40.21
2023-04-19T13:44:04.314Z,40.23
2023-04-19T13:45:08.258Z,40.75
2023-04-19T13:46:11.772Z,41.04
2023-04-19T13:47:15.343Z,40.38
2023-04-19T13:48:19.311Z,39.99
2023-04-19T13:49:23.171Z,40.49
2023-04-19T13:50:26.786Z,40.81
2023-04-19T13:51:42.483Z,40.95
2023-04-19T13:52:53.408Z,40.59
2023-04-19T13:53:57.451Z,40.93
2023-04-19T13:55:00.730Z,41.54
2023-04-19T13:56:04.759Z,41.58
2023-04-19T13:57:08.309Z,42.05
2023-04-19T13:58:12.133Z,42.70
2023-04-19T13:59:16.659Z,43.00
2023-04-19T14:00:20.517Z,43.19
2023-04-19T14:01:24.344Z,43.87
2023-04-19T14:02:28.157Z,43.16
2023-04-19T14:03:32.892Z,42.46
2023-04-19T14:04:36.941Z,42.76
2023-04-19T14:05:41.473Z,42.71
2023-04-19T14:06:44.990Z,42.20
2023-04-19T14:07:49.043Z,42.52
2023-04-19T14:08:52.629Z,42.42
2023-04-19T14:09:56.206Z,42.78
2023-04-19T14:11:00.164Z,41.82
2023-04-19T14:12:05.414Z,42.13
2023-04-19T14:13:08.690Z,42.79
2023-04-19T14:14:12.004Z,43.28
2023-04-19T14:15:15.879Z,43.82
2023-04-19T14:16:19.576Z,43.14